sensor_id;sensor_type;location;lat;lon;timestamp;P1;durP1;ratioP1;P2;durP2;ratioP2
17606;SDS011;8922;52.240;20.980;2023-02-12T00:01:31;3.20;;;1.67;;
17606;SDS011;8922;52.240;20.980;2023-02-12T00:04:01;1.73;;;1.20;;
17606;SDS011;8922;52.240;20.980;2023-02-12T00:06:30;2.77;;;1.10;;
17606;SDS011;8922;52.240;20.980;2023-02-12T00:08:58;2.40;;;1.20;;
17606;SDS011;8922;52.240;20.980;2023-02-12T00:11:27;1.50;;;1.00;;
17606;SDS011;8922;52.240;20.980;2023-02-12T00:13:57;2.50;;;1.37;;
17606;SDS011;8922;52.240;20.980;2023-02-12T00:16:27;1.90;;;1.13;;
17606;SDS011;8922;52.240;20.980;2023-02-12T00:18:56;3.07;;;1.30;;
17606;SDS011;8922;52.240;20.980;2023-02-12T00:21:27;3.13;;;1.40;;
17606;SDS011;8922;52.240;20.980;2023-02-12T00:23:56;4.03;;;1.30;;
17606;SDS011;8922;52.240;20.980;2023-02-12T00:26:24;1.20;;;1.00;;
17606;SDS011;8922;52.240;20.980;2023-02-12T00:28:53;2.27;;;0.90;;
17606;SDS011;8922;52.240;20.980;2023-02-12T00:31:23;2.13;;;1.10;;
17606;SDS011;8922;52.240;20.980;2023-02-12T00:33:54;2.90;;;1.17;;
17606;SDS011;8922;52.240;20.980;2023-02-12T00:36:24;2.60;;;0.90;;
17606;SDS011;8922;52.240;20.980;2023-02-12T00:38:56;2.87;;;1.00;;
17606;SDS011;8922;52.240;20.980;2023-02-12T00:41:25;2.60;;;1.03;;
17606;SDS011;8922;52.240;20.980;2023-02-12T00:43:54;3.27;;;0.90;;
17606;SDS011;8922;52.240;20.980;2023-02-12T00:46:22;1.53;;;1.10;;
17606;SDS011;8922;52.240;20.980;2023-02-12T00:48:51;2.00;;;1.27;;
17606;SDS011;8922;52.240;20.980;2023-02-12T00:51:19;2.63;;;1.00;;
17606;SDS011;8922;52.240;20.980;2023-02-12T00:53:49;1.03;;;0.90;;
17606;SDS011;8922;52.240;20.980;2023-02-12T00:56:18;2.83;;;1.10;;
17606;SDS011;8922;52.240;20.980;2023-02-12T00:58:46;3.97;;;0.83;;
17606;SDS011;8922;52.240;20.980;2023-02-12T01:01:15;1.83;;;0.90;;
17606;SDS011;8922;52.240;20.980;2023-02-12T01:03:44;1.50;;;1.00;;
17606;SDS011;8922;52.240;20.980;2023-02-12T01:06:12;1.77;;;0.80;;
17606;SDS011;8922;52.240;20.980;2023-02-12T01:08:40;1.90;;;1.37;;
17606;SDS011;8922;52.240;20.980;2023-02-12T01:11:11;1.57;;;1.00;;
17606;SDS011;8922;52.240;20.980;2023-02-12T01:13:40;2.83;;;0.80;;
17606;SDS011;8922;52.240;20.980;2023-02-12T01:16:11;2.33;;;1.10;;
17606;SDS011;8922;52.240;20.980;2023-02-12T01:18:43;1.43;;;1.10;;
17606;SDS011;8922;52.240;20.980;2023-02-12T01:21:13;1.37;;;0.90;;
17606;SDS011;8922;52.240;20.980;2023-02-12T01:23:44;1.07;;;0.80;;
17606;SDS011;8922;52.240;20.980;2023-02-12T01:26:15;1.13;;;0.93;;
17606;SDS011;8922;52.240;20.980;2023-02-12T01:28:47;2.60;;;1.40;;
17606;SDS011;8922;52.240;20.980;2023-02-12T01:31:19;2.50;;;1.07;;
17606;SDS011;8922;52.240;20.980;2023-02-12T01:33:51;3.10;;;1.13;;
17606;SDS011;8922;52.240;20.980;2023-02-12T01:36:21;1.67;;;0.83;;
17606;SDS011;8922;52.240;20.980;2023-02-12T01:38:51;1.67;;;1.13;;
17606;SDS011;8922;52.240;20.980;2023-02-12T01:41:22;1.40;;;1.07;;
17606;SDS011;8922;52.240;20.980;2023-02-12T01:44:06;1.90;;;1.03;;
17606;SDS011;8922;52.240;20.980;2023-02-12T01:46:39;1.63;;;0.83;;
17606;SDS011;8922;52.240;20.980;2023-02-12T01:49:11;1.87;;;1.00;;
17606;SDS011;8922;52.240;20.980;2023-02-12T01:51:44;1.87;;;1.27;;
17606;SDS011;8922;52.240;20.980;2023-02-12T01:54:16;1.43;;;1.03;;
17606;SDS011;8922;52.240;20.980;2023-02-12T01:56:48;4.60;;;1.00;;
17606;SDS011;8922;52.240;20.980;2023-02-12T01:59:17;3.33;;;1.50;;
17606;SDS011;8922;52.240;20.980;2023-02-12T02:01:47;2.73;;;1.23;;
17606;SDS011;8922;52.240;20.980;2023-02-12T02:04:16;2.43;;;1.00;;
17606;SDS011;8922;52.240;20.980;2023-02-12T02:06:51;1.57;;;1.03;;
17606;SDS011;8922;52.240;20.980;2023-02-12T02:09:23;1.97;;;1.10;;
17606;SDS011;8922;52.240;20.980;2023-02-12T02:11:54;2.70;;;1.10;;
17606;SDS011;8922;52.240;20.980;2023-02-12T02:14:41;1.23;;;1.00;;
17606;SDS011;8922;52.240;20.980;2023-02-12T02:17:15;1.50;;;0.93;;
17606;SDS011;8922;52.240;20.980;2023-02-12T02:20:05;1.37;;;1.00;;
17606;SDS011;8922;52.240;20.980;2023-02-12T02:23:14;1.23;;;0.70;;
17606;SDS011;8922;52.240;20.980;2023-02-12T02:26:27;0.70;;;0.70;;
17606;SDS011;8922;52.240;20.980;2023-02-12T02:29:23;1.80;;;1.23;;
17606;SDS011;8922;52.240;20.980;2023-02-12T02:32:17;1.87;;;0.70;;
17606;SDS011;8922;52.240;20.980;2023-02-12T02:34:53;1.20;;;0.73;;
17606;SDS011;8922;52.240;20.980;2023-02-12T02:37:27;0.83;;;0.67;;
17606;SDS011;8922;52.240;20.980;2023-02-12T02:40:04;0.77;;;0.77;;
17606;SDS011;8922;52.240;20.980;2023-02-12T02:42:42;0.70;;;0.70;;
17606;SDS011;8922;52.240;20.980;2023-02-12T02:45:19;1.50;;;0.87;;
17606;SDS011;8922;52.240;20.980;2023-02-12T02:47:57;1.30;;;1.03;;
17606;SDS011;8922;52.240;20.980;2023-02-12T02:50:30;2.27;;;1.00;;
17606;SDS011;8922;52.240;20.980;2023-02-12T02:53:05;1.77;;;1.23;;
17606;SDS011;8922;52.240;20.980;2023-02-12T02:55:39;1.53;;;1.17;;
17606;SDS011;8922;52.240;20.980;2023-02-12T02:58:13;1.73;;;1.40;;
17606;SDS011;8922;52.240;20.980;2023-02-12T03:00:47;2.93;;;1.30;;
17606;SDS011;8922;52.240;20.980;2023-02-12T03:03:25;1.40;;;1.10;;
17606;SDS011;8922;52.240;20.980;2023-02-12T03:05:59;1.27;;;0.90;;
17606;SDS011;8922;52.240;20.980;2023-02-12T03:08:35;1.57;;;1.07;;
17606;SDS011;8922;52.240;20.980;2023-02-12T03:11:09;2.23;;;1.03;;
17606;SDS011;8922;52.240;20.980;2023-02-12T03:13:42;1.90;;;1.00;;
17606;SDS011;8922;52.240;20.980;2023-02-12T03:16:16;1.83;;;0.70;;
17606;SDS011;8922;52.240;20.980;2023-02-12T03:18:50;0.87;;;0.77;;
17606;SDS011;8922;52.240;20.980;2023-02-12T03:21:24;0.60;;;0.50;;
17606;SDS011;8922;52.240;20.980;2023-02-12T03:23:59;0.67;;;0.67;;
17606;SDS011;8922;52.240;20.980;2023-02-12T03:26:37;1.43;;;0.60;;
17606;SDS011;8922;52.240;20.980;2023-02-12T03:29:11;0.77;;;0.70;;
17606;SDS011;8922;52.240;20.980;2023-02-12T03:31:43;1.07;;;0.60;;
17606;SDS011;8922;52.240;20.980;2023-02-12T03:34:25;1.10;;;1.03;;
17606;SDS011;8922;52.240;20.980;2023-02-12T03:37:02;1.37;;;0.70;;
17606;SDS011;8922;52.240;20.980;2023-02-12T03:39:37;1.70;;;0.60;;
17606;SDS011;8922;52.240;20.980;2023-02-12T03:42:17;1.53;;;0.90;;
17606;SDS011;8922;52.240;20.980;2023-02-12T03:44:59;1.10;;;0.70;;
17606;SDS011;8922;52.240;20.980;2023-02-12T03:47:38;1.00;;;0.80;;
17606;SDS011;8922;52.240;20.980;2023-02-12T03:50:14;0.70;;;0.70;;
17606;SDS011;8922;52.240;20.980;2023-02-12T03:52:48;1.83;;;0.60;;
17606;SDS011;8922;52.240;20.980;2023-02-12T03:55:18;1.60;;;0.70;;
17606;SDS011;8922;52.240;20.980;2023-02-12T03:57:48;1.30;;;0.60;;
17606;SDS011;8922;52.240;20.980;2023-02-12T04:00:24;1.33;;;0.70;;
17606;SDS011;8922;52.240;20.980;2023-02-12T04:02:53;0.73;;;0.67;;
17606;SDS011;8922;52.240;20.980;2023-02-12T04:05:24;1.87;;;0.80;;
17606;SDS011;8922;52.240;20.980;2023-02-12T04:07:54;0.80;;;0.70;;
17606;SDS011;8922;52.240;20.980;2023-02-12T04:10:26;1.17;;;0.60;;
17606;SDS011;8922;52.240;20.980;2023-02-12T04:13:05;0.83;;;0.83;;
17606;SDS011;8922;52.240;20.980;2023-02-12T04:15:56;0.77;;;0.77;;
17606;SDS011;8922;52.240;20.980;2023-02-12T04:18:40;0.70;;;0.70;;
17606;SDS011;8922;52.240;20.980;2023-02-12T04:21:15;0.93;;;0.73;;
17606;SDS011;8922;52.240;20.980;2023-02-12T04:24:01;0.50;;;0.50;;
17606;SDS011;8922;52.240;20.980;2023-02-12T04:26:38;0.77;;;0.60;;
17606;SDS011;8922;52.240;20.980;2023-02-12T04:29:17;0.63;;;0.63;;
17606;SDS011;8922;52.240;20.980;2023-02-12T04:31:54;1.90;;;0.70;;
17606;SDS011;8922;52.240;20.980;2023-02-12T04:34:31;0.60;;;0.60;;
17606;SDS011;8922;52.240;20.980;2023-02-12T04:37:09;1.03;;;0.77;;
17606;SDS011;8922;52.240;20.980;2023-02-12T04:39:43;0.93;;;0.70;;
17606;SDS011;8922;52.240;20.980;2023-02-12T04:42:12;0.83;;;0.70;;
17606;SDS011;8922;52.240;20.980;2023-02-12T04:44:42;1.67;;;0.70;;
17606;SDS011;8922;52.240;20.980;2023-02-12T04:47:11;4.97;;;0.87;;
17606;SDS011;8922;52.240;20.980;2023-02-12T04:49:40;1.70;;;1.00;;
17606;SDS011;8922;52.240;20.980;2023-02-12T04:52:10;1.80;;;0.70;;
17606;SDS011;8922;52.240;20.980;2023-02-12T04:54:39;1.07;;;0.93;;
17606;SDS011;8922;52.240;20.980;2023-02-12T04:57:07;0.90;;;0.70;;
17606;SDS011;8922;52.240;20.980;2023-02-12T04:59:36;1.80;;;0.83;;
17606;SDS011;8922;52.240;20.980;2023-02-12T05:02:04;1.00;;;0.87;;
17606;SDS011;8922;52.240;20.980;2023-02-12T05:04:33;1.97;;;0.90;;
17606;SDS011;8922;52.240;20.980;2023-02-12T05:07:01;1.47;;;0.77;;
17606;SDS011;8922;52.240;20.980;2023-02-12T05:09:31;1.00;;;0.80;;
17606;SDS011;8922;52.240;20.980;2023-02-12T05:11:59;0.93;;;0.70;;
17606;SDS011;8922;52.240;20.980;2023-02-12T05:14:28;1.73;;;0.80;;
17606;SDS011;8922;52.240;20.980;2023-02-12T05:16:57;2.10;;;0.60;;
17606;SDS011;8922;52.240;20.980;2023-02-12T05:19:25;1.07;;;0.90;;
17606;SDS011;8922;52.240;20.980;2023-02-12T05:21:54;2.10;;;0.80;;
17606;SDS011;8922;52.240;20.980;2023-02-12T05:24:22;1.20;;;0.90;;
17606;SDS011;8922;52.240;20.980;2023-02-12T05:26:52;1.30;;;0.80;;
17606;SDS011;8922;52.240;20.980;2023-02-12T05:29:21;1.10;;;0.80;;
17606;SDS011;8922;52.240;20.980;2023-02-12T05:31:49;1.40;;;1.30;;
17606;SDS011;8922;52.240;20.980;2023-02-12T05:34:18;1.37;;;1.27;;
17606;SDS011;8922;52.240;20.980;2023-02-12T05:36:46;1.07;;;0.83;;
17606;SDS011;8922;52.240;20.980;2023-02-12T05:39:15;2.13;;;1.10;;
17606;SDS011;8922;52.240;20.980;2023-02-12T05:41:43;1.10;;;1.00;;
17606;SDS011;8922;52.240;20.980;2023-02-12T05:44:13;0.83;;;0.70;;
17606;SDS011;8922;52.240;20.980;2023-02-12T05:46:42;0.90;;;0.90;;
17606;SDS011;8922;52.240;20.980;2023-02-12T05:49:10;1.70;;;1.00;;
17606;SDS011;8922;52.240;20.980;2023-02-12T05:51:39;0.70;;;0.70;;
17606;SDS011;8922;52.240;20.980;2023-02-12T05:54:08;1.10;;;0.90;;
17606;SDS011;8922;52.240;20.980;2023-02-12T05:56:40;1.00;;;0.90;;
17606;SDS011;8922;52.240;20.980;2023-02-12T05:59:12;2.03;;;1.27;;
17606;SDS011;8922;52.240;20.980;2023-02-12T06:01:44;1.23;;;1.13;;
17606;SDS011;8922;52.240;20.980;2023-02-12T06:04:16;1.53;;;1.20;;
17606;SDS011;8922;52.240;20.980;2023-02-12T06:06:49;2.33;;;1.03;;
17606;SDS011;8922;52.240;20.980;2023-02-12T06:09:17;0.97;;;0.97;;
17606;SDS011;8922;52.240;20.980;2023-02-12T06:11:46;0.90;;;0.60;;
17606;SDS011;8922;52.240;20.980;2023-02-12T06:14:17;0.83;;;0.80;;
17606;SDS011;8922;52.240;20.980;2023-02-12T06:16:48;1.53;;;1.00;;
17606;SDS011;8922;52.240;20.980;2023-02-12T06:19:18;1.20;;;0.87;;
17606;SDS011;8922;52.240;20.980;2023-02-12T06:21:47;1.17;;;0.80;;
17606;SDS011;8922;52.240;20.980;2023-02-12T06:24:16;1.20;;;0.80;;
17606;SDS011;8922;52.240;20.980;2023-02-12T06:26:47;0.90;;;0.90;;
17606;SDS011;8922;52.240;20.980;2023-02-12T06:29:18;2.27;;;1.10;;
17606;SDS011;8922;52.240;20.980;2023-02-12T06:31:47;2.87;;;0.80;;
17606;SDS011;8922;52.240;20.980;2023-02-12T06:34:16;1.27;;;0.90;;
17606;SDS011;8922;52.240;20.980;2023-02-12T06:36:45;0.83;;;0.80;;
17606;SDS011;8922;52.240;20.980;2023-02-12T06:39:14;1.63;;;1.17;;
17606;SDS011;8922;52.240;20.980;2023-02-12T06:41:44;2.07;;;0.83;;
17606;SDS011;8922;52.240;20.980;2023-02-12T06:44:12;3.83;;;1.10;;
17606;SDS011;8922;52.240;20.980;2023-02-12T06:46:42;1.07;;;0.87;;
17606;SDS011;8922;52.240;20.980;2023-02-12T06:49:11;1.63;;;0.97;;
17606;SDS011;8922;52.240;20.980;2023-02-12T06:51:41;1.03;;;0.90;;
17606;SDS011;8922;52.240;20.980;2023-02-12T06:54:11;1.10;;;0.87;;
17606;SDS011;8922;52.240;20.980;2023-02-12T06:56:41;0.90;;;0.90;;
17606;SDS011;8922;52.240;20.980;2023-02-12T06:59:11;1.27;;;0.90;;
17606;SDS011;8922;52.240;20.980;2023-02-12T07:01:43;1.30;;;0.80;;
17606;SDS011;8922;52.240;20.980;2023-02-12T07:04:11;1.77;;;1.03;;
17606;SDS011;8922;52.240;20.980;2023-02-12T07:06:40;1.27;;;0.90;;
17606;SDS011;8922;52.240;20.980;2023-02-12T07:09:09;1.60;;;1.10;;
17606;SDS011;8922;52.240;20.980;2023-02-12T07:11:38;2.13;;;1.00;;
17606;SDS011;8922;52.240;20.980;2023-02-12T07:14:07;1.17;;;1.07;;
17606;SDS011;8922;52.240;20.980;2023-02-12T07:16:42;2.00;;;1.13;;
17606;SDS011;8922;52.240;20.980;2023-02-12T07:19:12;1.00;;;0.97;;
17606;SDS011;8922;52.240;20.980;2023-02-12T07:21:43;1.27;;;0.90;;
17606;SDS011;8922;52.240;20.980;2023-02-12T07:24:12;1.47;;;0.90;;
17606;SDS011;8922;52.240;20.980;2023-02-12T07:26:41;1.53;;;0.80;;
17606;SDS011;8922;52.240;20.980;2023-02-12T07:29:10;0.93;;;0.90;;
17606;SDS011;8922;52.240;20.980;2023-02-12T07:31:38;1.53;;;1.20;;
17606;SDS011;8922;52.240;20.980;2023-02-12T07:34:09;1.83;;;1.20;;
17606;SDS011;8922;52.240;20.980;2023-02-12T07:36:37;1.17;;;1.07;;
17606;SDS011;8922;52.240;20.980;2023-02-12T07:39:09;1.23;;;0.90;;
17606;SDS011;8922;52.240;20.980;2023-02-12T07:41:38;1.33;;;1.17;;
17606;SDS011;8922;52.240;20.980;2023-02-12T07:44:09;1.70;;;0.90;;
17606;SDS011;8922;52.240;20.980;2023-02-12T07:46:39;2.10;;;0.87;;
17606;SDS011;8922;52.240;20.980;2023-02-12T07:49:15;1.00;;;0.90;;
17606;SDS011;8922;52.240;20.980;2023-02-12T07:51:46;1.23;;;1.13;;
17606;SDS011;8922;52.240;20.980;2023-02-12T07:54:15;1.70;;;1.03;;
17606;SDS011;8922;52.240;20.980;2023-02-12T07:56:44;1.17;;;1.00;;
17606;SDS011;8922;52.240;20.980;2023-02-12T07:59:15;1.10;;;0.93;;
17606;SDS011;8922;52.240;20.980;2023-02-12T08:01:46;1.23;;;1.00;;
17606;SDS011;8922;52.240;20.980;2023-02-12T08:04:19;2.93;;;1.10;;
17606;SDS011;8922;52.240;20.980;2023-02-12T08:06:51;1.07;;;0.93;;
17606;SDS011;8922;52.240;20.980;2023-02-12T08:09:22;2.03;;;0.90;;
17606;SDS011;8922;52.240;20.980;2023-02-12T08:11:52;1.50;;;1.10;;
17606;SDS011;8922;52.240;20.980;2023-02-12T08:14:21;1.30;;;1.10;;
17606;SDS011;8922;52.240;20.980;2023-02-12T08:16:50;2.20;;;0.90;;
17606;SDS011;8922;52.240;20.980;2023-02-12T08:19:20;0.90;;;0.87;;
17606;SDS011;8922;52.240;20.980;2023-02-12T08:21:52;0.93;;;0.90;;
17606;SDS011;8922;52.240;20.980;2023-02-12T08:24:21;1.77;;;1.10;;
17606;SDS011;8922;52.240;20.980;2023-02-12T08:26:51;1.93;;;1.00;;
17606;SDS011;8922;52.240;20.980;2023-02-12T08:29:20;2.63;;;1.30;;
17606;SDS011;8922;52.240;20.980;2023-02-12T08:31:53;1.43;;;1.30;;
17606;SDS011;8922;52.240;20.980;2023-02-12T08:34:25;1.23;;;1.10;;
17606;SDS011;8922;52.240;20.980;2023-02-12T08:36:55;1.53;;;1.10;;
17606;SDS011;8922;52.240;20.980;2023-02-12T08:39:26;2.00;;;1.10;;
17606;SDS011;8922;52.240;20.980;2023-02-12T08:41:56;1.70;;;1.30;;
17606;SDS011;8922;52.240;20.980;2023-02-12T08:44:26;1.60;;;1.47;;
17606;SDS011;8922;52.240;20.980;2023-02-12T08:46:55;3.60;;;1.83;;
17606;SDS011;8922;52.240;20.980;2023-02-12T08:49:26;2.60;;;2.03;;
17606;SDS011;8922;52.240;20.980;2023-02-12T08:51:57;3.10;;;2.17;;
17606;SDS011;8922;52.240;20.980;2023-02-12T08:54:28;2.87;;;2.00;;
17606;SDS011;8922;52.240;20.980;2023-02-12T08:56:58;2.30;;;2.10;;
17606;SDS011;8922;52.240;20.980;2023-02-12T08:59:28;5.13;;;1.83;;
17606;SDS011;8922;52.240;20.980;2023-02-12T09:01:57;2.97;;;2.07;;
17606;SDS011;8922;52.240;20.980;2023-02-12T09:04:28;2.20;;;2.00;;
17606;SDS011;8922;52.240;20.980;2023-02-12T09:06:56;2.83;;;2.17;;
17606;SDS011;8922;52.240;20.980;2023-02-12T09:09:25;3.23;;;2.10;;
17606;SDS011;8922;52.240;20.980;2023-02-12T09:11:53;2.60;;;2.00;;
17606;SDS011;8922;52.240;20.980;2023-02-12T09:14:22;3.47;;;2.73;;
17606;SDS011;8922;52.240;20.980;2023-02-12T09:16:50;2.57;;;2.23;;
17606;SDS011;8922;52.240;20.980;2023-02-12T09:19:20;2.00;;;1.80;;
17606;SDS011;8922;52.240;20.980;2023-02-12T09:21:51;2.57;;;1.83;;
17606;SDS011;8922;52.240;20.980;2023-02-12T09:24:22;1.63;;;1.50;;
17606;SDS011;8922;52.240;20.980;2023-02-12T09:26:53;3.28;;;1.30;;
17606;SDS011;8922;52.240;20.980;2023-02-12T09:29:21;2.95;;;1.50;;
17606;SDS011;8922;52.240;20.980;2023-02-12T09:31:50;1.73;;;1.50;;
17606;SDS011;8922;52.240;20.980;2023-02-12T09:34:19;2.33;;;1.65;;
17606;SDS011;8922;52.240;20.980;2023-02-12T09:36:47;1.75;;;1.45;;
17606;SDS011;8922;52.240;20.980;2023-02-12T09:39:17;3.00;;;1.80;;
17606;SDS011;8922;52.240;20.980;2023-02-12T09:41:50;2.60;;;1.85;;
17606;SDS011;8922;52.240;20.980;2023-02-12T09:44:49;1.92;;;1.60;;
17606;SDS011;8922;52.240;20.980;2023-02-12T09:47:29;2.40;;;1.67;;
17606;SDS011;8922;52.240;20.980;2023-02-12T09:50:09;2.80;;;1.85;;
17606;SDS011;8922;52.240;20.980;2023-02-12T09:52:53;2.13;;;1.70;;
17606;SDS011;8922;52.240;20.980;2023-02-12T09:55:26;1.80;;;1.48;;
17606;SDS011;8922;52.240;20.980;2023-02-12T09:57:58;2.30;;;1.70;;
17606;SDS011;8922;52.240;20.980;2023-02-12T10:00:33;2.33;;;1.80;;
17606;SDS011;8922;52.240;20.980;2023-02-12T10:03:03;2.50;;;1.80;;
17606;SDS011;8922;52.240;20.980;2023-02-12T10:05:40;2.33;;;1.92;;
17606;SDS011;8922;52.240;20.980;2023-02-12T10:08:23;2.10;;;1.60;;
17606;SDS011;8922;52.240;20.980;2023-02-12T10:11:21;2.10;;;1.50;;
17606;SDS011;8922;52.240;20.980;2023-02-12T10:14:26;2.28;;;1.70;;
17606;SDS011;8922;52.240;20.980;2023-02-12T10:17:18;3.58;;;2.42;;
17606;SDS011;8922;52.240;20.980;2023-02-12T10:20:14;4.00;;;2.30;;
17606;SDS011;8922;52.240;20.980;2023-02-12T10:23:20;3.55;;;2.60;;
17606;SDS011;8922;52.240;20.980;2023-02-12T10:26:07;2.63;;;2.00;;
17606;SDS011;8922;52.240;20.980;2023-02-12T10:28:46;2.88;;;1.55;;
17606;SDS011;8922;52.240;20.980;2023-02-12T10:31:18;2.80;;;1.40;;
17606;SDS011;8922;52.240;20.980;2023-02-12T10:33:55;2.03;;;1.60;;
17606;SDS011;8922;52.240;20.980;2023-02-12T10:36:30;1.98;;;1.50;;
17606;SDS011;8922;52.240;20.980;2023-02-12T10:39:11;2.45;;;1.73;;
17606;SDS011;8922;52.240;20.980;2023-02-12T10:41:46;1.60;;;1.40;;
17606;SDS011;8922;52.240;20.980;2023-02-12T10:44:36;1.90;;;1.63;;
17606;SDS011;8922;52.240;20.980;2023-02-12T10:47:04;2.28;;;1.80;;
17606;SDS011;8922;52.240;20.980;2023-02-12T10:49:33;2.38;;;1.88;;
17606;SDS011;8922;52.240;20.980;2023-02-12T10:52:10;2.60;;;1.67;;
17606;SDS011;8922;52.240;20.980;2023-02-12T10:54:45;4.15;;;1.52;;
17606;SDS011;8922;52.240;20.980;2023-02-12T10:57:19;2.38;;;1.63;;
17606;SDS011;8922;52.240;20.980;2023-02-12T10:59:53;2.58;;;1.73;;
17606;SDS011;8922;52.240;20.980;2023-02-12T11:02:40;2.00;;;1.50;;
17606;SDS011;8922;52.240;20.980;2023-02-12T11:05:33;2.45;;;1.77;;
17606;SDS011;8922;52.240;20.980;2023-02-12T11:08:03;1.52;;;1.40;;
17606;SDS011;8922;52.240;20.980;2023-02-12T11:10:35;2.28;;;1.77;;
17606;SDS011;8922;52.240;20.980;2023-02-12T11:13:16;3.08;;;1.65;;
17606;SDS011;8922;52.240;20.980;2023-02-12T11:15:52;2.45;;;1.98;;
17606;SDS011;8922;52.240;20.980;2023-02-12T11:18:22;2.17;;;1.70;;
17606;SDS011;8922;52.240;20.980;2023-02-12T11:20:54;2.67;;;2.17;;
17606;SDS011;8922;52.240;20.980;2023-02-12T11:23:25;2.97;;;2.20;;
17606;SDS011;8922;52.240;20.980;2023-02-12T11:25:57;2.28;;;2.00;;
17606;SDS011;8922;52.240;20.980;2023-02-12T11:28:28;2.80;;;2.00;;
17606;SDS011;8922;52.240;20.980;2023-02-12T11:31:00;4.45;;;2.40;;
17606;SDS011;8922;52.240;20.980;2023-02-12T11:33:31;3.03;;;2.35;;
17606;SDS011;8922;52.240;20.980;2023-02-12T11:36:03;2.10;;;1.98;;
17606;SDS011;8922;52.240;20.980;2023-02-12T11:38:46;2.33;;;1.98;;
17606;SDS011;8922;52.240;20.980;2023-02-12T11:41:22;2.20;;;1.92;;
17606;SDS011;8922;52.240;20.980;2023-02-12T11:43:59;2.72;;;2.20;;
17606;SDS011;8922;52.240;20.980;2023-02-12T11:46:36;2.22;;;1.95;;
17606;SDS011;8922;52.240;20.980;2023-02-12T11:49:07;4.13;;;2.90;;
17606;SDS011;8922;52.240;20.980;2023-02-12T11:51:45;2.42;;;2.13;;
17606;SDS011;8922;52.240;20.980;2023-02-12T11:54:17;5.65;;;2.40;;
17606;SDS011;8922;52.240;20.980;2023-02-12T11:56:50;3.88;;;2.72;;
17606;SDS011;8922;52.240;20.980;2023-02-12T11:59:25;4.10;;;2.65;;
17606;SDS011;8922;52.240;20.980;2023-02-12T12:02:07;3.70;;;2.17;;
17606;SDS011;8922;52.240;20.980;2023-02-12T12:04:52;3.35;;;2.40;;
17606;SDS011;8922;52.240;20.980;2023-02-12T12:07:30;2.40;;;1.95;;
17606;SDS011;8922;52.240;20.980;2023-02-12T12:10:04;4.68;;;2.55;;
17606;SDS011;8922;52.240;20.980;2023-02-12T12:12:40;3.65;;;2.40;;
17606;SDS011;8922;52.240;20.980;2023-02-12T12:15:15;2.92;;;2.60;;
17606;SDS011;8922;52.240;20.980;2023-02-12T12:18:23;3.35;;;2.70;;
17606;SDS011;8922;52.240;20.980;2023-02-12T12:21:16;2.72;;;2.30;;
17606;SDS011;8922;52.240;20.980;2023-02-12T12:23:53;3.28;;;2.20;;
17606;SDS011;8922;52.240;20.980;2023-02-12T12:26:26;2.70;;;2.10;;
17606;SDS011;8922;52.240;20.980;2023-02-12T12:29:00;3.47;;;2.47;;
17606;SDS011;8922;52.240;20.980;2023-02-12T12:31:34;9.57;;;4.60;;
17606;SDS011;8922;52.240;20.980;2023-02-12T12:34:08;6.55;;;3.30;;
17606;SDS011;8922;52.240;20.980;2023-02-12T12:37:01;2.65;;;2.17;;
17606;SDS011;8922;52.240;20.980;2023-02-12T12:39:55;4.70;;;2.55;;
17606;SDS011;8922;52.240;20.980;2023-02-12T12:42:46;3.57;;;2.80;;
17606;SDS011;8922;52.240;20.980;2023-02-12T12:45:53;3.57;;;2.70;;
17606;SDS011;8922;52.240;20.980;2023-02-12T12:49:03;4.87;;;3.13;;
17606;SDS011;8922;52.240;20.980;2023-02-12T12:52:11;4.53;;;3.23;;
17606;SDS011;8922;52.240;20.980;2023-02-12T12:55:21;4.00;;;2.87;;
17606;SDS011;8922;52.240;20.980;2023-02-12T12:58:32;4.17;;;3.27;;
17606;SDS011;8922;52.240;20.980;2023-02-12T13:01:20;5.67;;;3.97;;
17606;SDS011;8922;52.240;20.980;2023-02-12T13:04:29;5.87;;;3.90;;
17606;SDS011;8922;52.240;20.980;2023-02-12T13:07:17;6.53;;;3.63;;
17606;SDS011;8922;52.240;20.980;2023-02-12T13:10:12;6.83;;;4.23;;
17606;SDS011;8922;52.240;20.980;2023-02-12T13:12:59;7.40;;;4.37;;
17606;SDS011;8922;52.240;20.980;2023-02-12T13:15:46;8.03;;;3.60;;
17606;SDS011;8922;52.240;20.980;2023-02-12T13:18:28;6.87;;;4.77;;
17606;SDS011;8922;52.240;20.980;2023-02-12T13:21:17;5.80;;;3.77;;
17606;SDS011;8922;52.240;20.980;2023-02-12T13:24:02;6.33;;;4.10;;
17606;SDS011;8922;52.240;20.980;2023-02-12T13:26:40;7.47;;;4.20;;
17606;SDS011;8922;52.240;20.980;2023-02-12T13:29:16;6.10;;;4.20;;
17606;SDS011;8922;52.240;20.980;2023-02-12T13:31:48;6.70;;;3.77;;
17606;SDS011;8922;52.240;20.980;2023-02-12T13:34:23;4.30;;;3.50;;
17606;SDS011;8922;52.240;20.980;2023-02-12T13:36:57;5.83;;;3.83;;
17606;SDS011;8922;52.240;20.980;2023-02-12T13:39:29;7.17;;;4.13;;
17606;SDS011;8922;52.240;20.980;2023-02-12T13:42:07;6.67;;;4.43;;
17606;SDS011;8922;52.240;20.980;2023-02-12T13:44:49;5.93;;;3.97;;
17606;SDS011;8922;52.240;20.980;2023-02-12T13:47:27;7.17;;;4.30;;
17606;SDS011;8922;52.240;20.980;2023-02-12T13:50:04;7.03;;;4.50;;
17606;SDS011;8922;52.240;20.980;2023-02-12T13:52:53;4.47;;;3.53;;
17606;SDS011;8922;52.240;20.980;2023-02-12T13:55:28;6.77;;;3.57;;
17606;SDS011;8922;52.240;20.980;2023-02-12T14:04:13;6.00;;;3.30;;
17606;SDS011;8922;52.240;20.980;2023-02-12T14:06:57;7.63;;;3.50;;
17606;SDS011;8922;52.240;20.980;2023-02-12T14:09:30;7.40;;;3.90;;
17606;SDS011;8922;52.240;20.980;2023-02-12T14:12:03;5.50;;;3.77;;
17606;SDS011;8922;52.240;20.980;2023-02-12T14:14:35;6.27;;;3.90;;
17606;SDS011;8922;52.240;20.980;2023-02-12T14:20:25;5.73;;;3.93;;
17606;SDS011;8922;52.240;20.980;2023-02-12T14:23:00;7.13;;;4.13;;
17606;SDS011;8922;52.240;20.980;2023-02-12T14:25:57;6.47;;;3.63;;
17606;SDS011;8922;52.240;20.980;2023-02-12T14:28:31;6.27;;;4.47;;
17606;SDS011;8922;52.240;20.980;2023-02-12T14:31:19;6.67;;;4.03;;
17606;SDS011;8922;52.240;20.980;2023-02-12T14:37:32;6.93;;;4.00;;
17606;SDS011;8922;52.240;20.980;2023-02-12T14:43:26;6.87;;;4.27;;
17606;SDS011;8922;52.240;20.980;2023-02-12T14:46:21;5.57;;;4.30;;
17606;SDS011;8922;52.240;20.980;2023-02-12T14:49:17;4.70;;;4.10;;
17606;SDS011;8922;52.240;20.980;2023-02-12T14:51:52;6.57;;;4.50;;
17606;SDS011;8922;52.240;20.980;2023-02-12T14:54:26;6.07;;;4.20;;
17606;SDS011;8922;52.240;20.980;2023-02-12T14:56:59;4.77;;;4.27;;
17606;SDS011;8922;52.240;20.980;2023-02-12T14:59:35;7.13;;;4.47;;
17606;SDS011;8922;52.240;20.980;2023-02-12T15:02:07;5.70;;;3.97;;
17606;SDS011;8922;52.240;20.980;2023-02-12T15:04:45;9.97;;;5.13;;
17606;SDS011;8922;52.240;20.980;2023-02-12T15:07:15;7.23;;;4.80;;
17606;SDS011;8922;52.240;20.980;2023-02-12T15:09:56;6.93;;;4.73;;
17606;SDS011;8922;52.240;20.980;2023-02-12T15:12:34;6.33;;;5.03;;
17606;SDS011;8922;52.240;20.980;2023-02-12T15:15:10;9.60;;;5.33;;
17606;SDS011;8922;52.240;20.980;2023-02-12T15:17:51;8.30;;;5.67;;
17606;SDS011;8922;52.240;20.980;2023-02-12T15:20:26;8.97;;;6.27;;
17606;SDS011;8922;52.240;20.980;2023-02-12T15:23:02;9.33;;;6.40;;
17606;SDS011;8922;52.240;20.980;2023-02-12T15:26:04;9.17;;;6.47;;
17606;SDS011;8922;52.240;20.980;2023-02-12T15:28:40;8.97;;;6.53;;
17606;SDS011;8922;52.240;20.980;2023-02-12T15:31:09;9.80;;;7.47;;
17606;SDS011;8922;52.240;20.980;2023-02-12T15:33:44;9.53;;;7.33;;
17606;SDS011;8922;52.240;20.980;2023-02-12T15:36:16;11.73;;;7.80;;
17606;SDS011;8922;52.240;20.980;2023-02-12T15:38:49;10.43;;;7.07;;
17606;SDS011;8922;52.240;20.980;2023-02-12T15:41:25;9.77;;;7.07;;
17606;SDS011;8922;52.240;20.980;2023-02-12T15:44:03;11.17;;;7.77;;
17606;SDS011;8922;52.240;20.980;2023-02-12T15:47:00;13.33;;;8.10;;
17606;SDS011;8922;52.240;20.980;2023-02-12T15:49:38;10.70;;;8.57;;
17606;SDS011;8922;52.240;20.980;2023-02-12T15:52:13;10.00;;;7.60;;